sensor_id;sensor_type;location;lat;lon;timestamp;P1;durP1;ratioP1;P2;durP2;ratioP2
18251;SDS011;26917;52.328;20.878;2023-04-08T00:00:29;15.93;;;11.40;;
18251;SDS011;26917;52.328;20.878;2023-04-08T00:03:00;17.70;;;12.00;;
18251;SDS011;26917;52.328;20.878;2023-04-08T00:05:29;16.60;;;11.23;;
18251;SDS011;26917;52.328;20.878;2023-04-08T00:07:57;17.88;;;12.20;;
18251;SDS011;26917;52.328;20.878;2023-04-08T00:10:25;16.98;;;12.32;;
18251;SDS011;26917;52.328;20.878;2023-04-08T00:12:54;17.15;;;11.68;;
18251;SDS011;26917;52.328;20.878;2023-04-08T00:15:23;17.05;;;11.32;;
18251;SDS011;26917;52.328;20.878;2023-04-08T00:17:52;15.45;;;10.93;;
18251;SDS011;26917;52.328;20.878;2023-04-08T00:20:21;20.02;;;12.73;;
18251;SDS011;26917;52.328;20.878;2023-04-08T00:22:50;19.35;;;11.05;;
18251;SDS011;26917;52.328;20.878;2023-04-08T00:25:18;18.02;;;11.63;;
18251;SDS011;26917;52.328;20.878;2023-04-08T00:27:50;16.45;;;12.20;;
18251;SDS011;26917;52.328;20.878;2023-04-08T00:30:19;20.23;;;12.98;;
18251;SDS011;26917;52.328;20.878;2023-04-08T00:32:49;17.48;;;11.93;;
18251;SDS011;26917;52.328;20.878;2023-04-08T00:35:18;17.60;;;12.25;;
18251;SDS011;26917;52.328;20.878;2023-04-08T00:37:46;16.98;;;11.55;;
18251;SDS011;26917;52.328;20.878;2023-04-08T00:40:15;16.67;;;11.48;;
18251;SDS011;26917;52.328;20.878;2023-04-08T00:42:43;17.80;;;11.68;;
18251;SDS011;26917;52.328;20.878;2023-04-08T00:45:13;17.75;;;11.40;;
18251;SDS011;26917;52.328;20.878;2023-04-08T00:47:42;17.88;;;11.02;;
18251;SDS011;26917;52.328;20.878;2023-04-08T00:50:13;18.92;;;12.05;;
18251;SDS011;26917;52.328;20.878;2023-04-08T00:52:42;16.88;;;11.30;;
18251;SDS011;26917;52.328;20.878;2023-04-08T00:55:11;16.67;;;10.77;;
18251;SDS011;26917;52.328;20.878;2023-04-08T00:57:39;17.95;;;12.82;;
18251;SDS011;26917;52.328;20.878;2023-04-08T01:00:09;17.42;;;11.55;;
18251;SDS011;26917;52.328;20.878;2023-04-08T01:02:42;16.88;;;11.77;;
18251;SDS011;26917;52.328;20.878;2023-04-08T01:05:22;18.77;;;12.45;;
18251;SDS011;26917;52.328;20.878;2023-04-08T01:07:56;18.05;;;11.73;;
18251;SDS011;26917;52.328;20.878;2023-04-08T01:10:29;19.15;;;11.80;;
18251;SDS011;26917;52.328;20.878;2023-04-08T01:13:03;20.10;;;11.90;;
18251;SDS011;26917;52.328;20.878;2023-04-08T01:15:34;18.08;;;11.27;;
18251;SDS011;26917;52.328;20.878;2023-04-08T01:18:07;20.48;;;12.23;;
18251;SDS011;26917;52.328;20.878;2023-04-08T01:20:40;18.30;;;11.63;;
18251;SDS011;26917;52.328;20.878;2023-04-08T01:23:12;17.02;;;10.57;;
18251;SDS011;26917;52.328;20.878;2023-04-08T01:25:48;16.27;;;11.70;;
18251;SDS011;26917;52.328;20.878;2023-04-08T01:28:17;19.13;;;12.13;;
18251;SDS011;26917;52.328;20.878;2023-04-08T01:30:47;20.55;;;12.23;;
18251;SDS011;26917;52.328;20.878;2023-04-08T01:33:17;16.33;;;11.40;;
18251;SDS011;26917;52.328;20.878;2023-04-08T01:35:48;18.17;;;11.70;;
18251;SDS011;26917;52.328;20.878;2023-04-08T01:40:53;21.10;;;12.48;;
18251;SDS011;26917;52.328;20.878;2023-04-08T01:43:22;19.45;;;12.50;;
18251;SDS011;26917;52.328;20.878;2023-04-08T01:45:52;21.90;;;12.57;;
18251;SDS011;26917;52.328;20.878;2023-04-08T01:48:24;18.00;;;11.75;;
18251;SDS011;26917;52.328;20.878;2023-04-08T01:50:53;17.52;;;11.25;;
18251;SDS011;26917;52.328;20.878;2023-04-08T01:53:23;17.33;;;11.23;;
18251;SDS011;26917;52.328;20.878;2023-04-08T01:55:54;14.52;;;11.10;;
18251;SDS011;26917;52.328;20.878;2023-04-08T01:58:29;17.50;;;12.13;;
18251;SDS011;26917;52.328;20.878;2023-04-08T02:01:02;20.15;;;12.10;;
18251;SDS011;26917;52.328;20.878;2023-04-08T02:03:33;19.80;;;12.38;;
18251;SDS011;26917;52.328;20.878;2023-04-08T02:06:03;17.08;;;11.15;;
18251;SDS011;26917;52.328;20.878;2023-04-08T02:08:32;20.52;;;11.82;;
18251;SDS011;26917;52.328;20.878;2023-04-08T02:11:03;19.67;;;12.15;;
18251;SDS011;26917;52.328;20.878;2023-04-08T02:13:32;20.92;;;12.25;;
18251;SDS011;26917;52.328;20.878;2023-04-08T02:16:03;22.02;;;12.82;;
18251;SDS011;26917;52.328;20.878;2023-04-08T02:18:36;17.10;;;11.23;;
18251;SDS011;26917;52.328;20.878;2023-04-08T02:21:11;20.77;;;11.52;;
18251;SDS011;26917;52.328;20.878;2023-04-08T02:23:44;20.75;;;12.13;;
18251;SDS011;26917;52.328;20.878;2023-04-08T02:26:18;20.05;;;12.23;;
18251;SDS011;26917;52.328;20.878;2023-04-08T02:28:50;21.17;;;12.85;;
18251;SDS011;26917;52.328;20.878;2023-04-08T02:31:21;19.80;;;12.82;;
18251;SDS011;26917;52.328;20.878;2023-04-08T02:33:51;21.67;;;13.13;;
18251;SDS011;26917;52.328;20.878;2023-04-08T02:36:21;20.25;;;12.48;;
18251;SDS011;26917;52.328;20.878;2023-04-08T02:38:51;21.42;;;13.20;;
18251;SDS011;26917;52.328;20.878;2023-04-08T02:41:21;21.27;;;12.20;;
18251;SDS011;26917;52.328;20.878;2023-04-08T02:43:50;21.85;;;13.25;;
18251;SDS011;26917;52.328;20.878;2023-04-08T02:46:21;21.63;;;13.60;;
18251;SDS011;26917;52.328;20.878;2023-04-08T02:48:49;19.35;;;12.45;;
18251;SDS011;26917;52.328;20.878;2023-04-08T02:51:18;22.55;;;12.77;;
18251;SDS011;26917;52.328;20.878;2023-04-08T02:53:47;23.40;;;12.25;;
18251;SDS011;26917;52.328;20.878;2023-04-08T02:56:15;23.35;;;13.57;;
18251;SDS011;26917;52.328;20.878;2023-04-08T02:58:45;22.80;;;13.48;;
18251;SDS011;26917;52.328;20.878;2023-04-08T03:01:14;24.75;;;13.20;;
18251;SDS011;26917;52.328;20.878;2023-04-08T03:03:43;23.50;;;13.48;;
18251;SDS011;26917;52.328;20.878;2023-04-08T03:06:12;24.77;;;12.23;;
18251;SDS011;26917;52.328;20.878;2023-04-08T03:08:41;20.80;;;13.05;;
18251;SDS011;26917;52.328;20.878;2023-04-08T03:11:09;22.20;;;13.35;;
18251;SDS011;26917;52.328;20.878;2023-04-08T03:13:38;23.80;;;13.73;;
18251;SDS011;26917;52.328;20.878;2023-04-08T03:16:08;24.80;;;14.25;;
18251;SDS011;26917;52.328;20.878;2023-04-08T03:18:37;23.55;;;14.07;;
18251;SDS011;26917;52.328;20.878;2023-04-08T03:21:05;27.40;;;13.93;;
18251;SDS011;26917;52.328;20.878;2023-04-08T03:23:34;27.17;;;13.40;;
18251;SDS011;26917;52.328;20.878;2023-04-08T03:26:03;21.60;;;13.07;;
18251;SDS011;26917;52.328;20.878;2023-04-08T03:28:31;26.77;;;14.02;;
18251;SDS011;26917;52.328;20.878;2023-04-08T03:31:03;24.10;;;13.70;;
18251;SDS011;26917;52.328;20.878;2023-04-08T03:33:33;24.02;;;13.98;;
18251;SDS011;26917;52.328;20.878;2023-04-08T03:36:02;28.00;;;14.50;;
18251;SDS011;26917;52.328;20.878;2023-04-08T03:38:31;23.52;;;13.27;;
18251;SDS011;26917;52.328;20.878;2023-04-08T03:40:59;26.30;;;15.13;;
18251;SDS011;26917;52.328;20.878;2023-04-08T03:43:28;24.08;;;13.90;;
18251;SDS011;26917;52.328;20.878;2023-04-08T03:45:56;25.42;;;14.95;;
18251;SDS011;26917;52.328;20.878;2023-04-08T03:48:25;26.95;;;14.43;;
18251;SDS011;26917;52.328;20.878;2023-04-08T03:50:55;25.85;;;13.65;;
18251;SDS011;26917;52.328;20.878;2023-04-08T03:53:23;31.05;;;13.93;;
18251;SDS011;26917;52.328;20.878;2023-04-08T03:55:53;22.90;;;13.40;;
18251;SDS011;26917;52.328;20.878;2023-04-08T03:58:24;25.50;;;13.27;;
18251;SDS011;26917;52.328;20.878;2023-04-08T04:00:52;25.58;;;14.65;;
18251;SDS011;26917;52.328;20.878;2023-04-08T04:03:21;24.52;;;14.18;;
18251;SDS011;26917;52.328;20.878;2023-04-08T04:05:50;24.83;;;14.23;;
18251;SDS011;26917;52.328;20.878;2023-04-08T04:08:20;23.88;;;13.00;;
18251;SDS011;26917;52.328;20.878;2023-04-08T04:10:48;24.92;;;14.60;;
18251;SDS011;26917;52.328;20.878;2023-04-08T04:13:17;24.75;;;13.45;;
18251;SDS011;26917;52.328;20.878;2023-04-08T04:15:47;25.58;;;13.85;;
18251;SDS011;26917;52.328;20.878;2023-04-08T04:18:16;31.30;;;14.65;;
18251;SDS011;26917;52.328;20.878;2023-04-08T04:20:44;26.63;;;14.65;;
18251;SDS011;26917;52.328;20.878;2023-04-08T04:23:13;25.98;;;14.60;;
18251;SDS011;26917;52.328;20.878;2023-04-08T04:25:43;29.00;;;15.77;;
18251;SDS011;26917;52.328;20.878;2023-04-08T04:28:11;31.48;;;16.38;;
18251;SDS011;26917;52.328;20.878;2023-04-08T04:30:40;31.50;;;17.70;;
18251;SDS011;26917;52.328;20.878;2023-04-08T04:33:08;34.55;;;18.45;;
18251;SDS011;26917;52.328;20.878;2023-04-08T04:35:38;36.17;;;19.80;;
18251;SDS011;26917;52.328;20.878;2023-04-08T04:38:06;37.97;;;18.35;;
18251;SDS011;26917;52.328;20.878;2023-04-08T04:40:38;36.15;;;18.05;;
18251;SDS011;26917;52.328;20.878;2023-04-08T04:43:08;38.30;;;18.80;;
18251;SDS011;26917;52.328;20.878;2023-04-08T04:45:40;39.03;;;20.15;;
18251;SDS011;26917;52.328;20.878;2023-04-08T04:48:09;32.00;;;18.15;;
18251;SDS011;26917;52.328;20.878;2023-04-08T04:50:38;34.75;;;19.27;;
18251;SDS011;26917;52.328;20.878;2023-04-08T04:53:07;37.80;;;19.08;;
18251;SDS011;26917;52.328;20.878;2023-04-08T04:55:36;39.00;;;19.63;;
18251;SDS011;26917;52.328;20.878;2023-04-08T04:58:04;35.15;;;19.27;;
18251;SDS011;26917;52.328;20.878;2023-04-08T05:00:34;31.98;;;17.30;;
18251;SDS011;26917;52.328;20.878;2023-04-08T05:03:03;34.60;;;17.40;;
18251;SDS011;26917;52.328;20.878;2023-04-08T05:05:35;28.52;;;14.90;;
18251;SDS011;26917;52.328;20.878;2023-04-08T05:08:04;27.42;;;14.73;;
18251;SDS011;26917;52.328;20.878;2023-04-08T05:10:35;32.45;;;16.75;;
18251;SDS011;26917;52.328;20.878;2023-04-08T05:13:03;32.78;;;17.00;;
18251;SDS011;26917;52.328;20.878;2023-04-08T05:15:34;34.33;;;18.45;;
18251;SDS011;26917;52.328;20.878;2023-04-08T05:18:03;30.45;;;17.13;;
18251;SDS011;26917;52.328;20.878;2023-04-08T05:20:32;26.95;;;15.48;;
18251;SDS011;26917;52.328;20.878;2023-04-08T05:23:04;27.58;;;15.77;;
18251;SDS011;26917;52.328;20.878;2023-04-08T05:25:33;30.55;;;16.60;;
18251;SDS011;26917;52.328;20.878;2023-04-08T05:28:01;33.60;;;17.65;;
18251;SDS011;26917;52.328;20.878;2023-04-08T05:30:31;35.65;;;16.85;;
18251;SDS011;26917;52.328;20.878;2023-04-08T05:33:01;35.80;;;17.38;;
18251;SDS011;26917;52.328;20.878;2023-04-08T05:35:29;32.20;;;16.85;;
18251;SDS011;26917;52.328;20.878;2023-04-08T05:37:59;31.95;;;16.90;;
18251;SDS011;26917;52.328;20.878;2023-04-08T05:40:27;28.85;;;16.25;;
18251;SDS011;26917;52.328;20.878;2023-04-08T05:42:56;27.77;;;15.70;;
18251;SDS011;26917;52.328;20.878;2023-04-08T05:48:09;28.65;;;15.43;;
18251;SDS011;26917;52.328;20.878;2023-04-08T05:50:38;26.98;;;15.20;;
18251;SDS011;26917;52.328;20.878;2023-04-08T05:53:07;29.92;;;15.02;;
18251;SDS011;26917;52.328;20.878;2023-04-08T05:55:36;25.55;;;14.55;;
18251;SDS011;26917;52.328;20.878;2023-04-08T05:58:04;22.55;;;13.68;;
18251;SDS011;26917;52.328;20.878;2023-04-08T06:00:33;24.27;;;14.15;;
18251;SDS011;26917;52.328;20.878;2023-04-08T06:03:01;22.08;;;13.18;;
18251;SDS011;26917;52.328;20.878;2023-04-08T06:05:32;22.70;;;13.50;;
18251;SDS011;26917;52.328;20.878;2023-04-08T06:08:00;20.52;;;12.75;;
18251;SDS011;26917;52.328;20.878;2023-04-08T06:10:29;19.33;;;12.10;;
18251;SDS011;26917;52.328;20.878;2023-04-08T06:12:57;20.77;;;12.68;;
18251;SDS011;26917;52.328;20.878;2023-04-08T06:15:26;17.95;;;11.57;;
18251;SDS011;26917;52.328;20.878;2023-04-08T06:17:54;20.33;;;11.80;;
18251;SDS011;26917;52.328;20.878;2023-04-08T06:20:23;17.10;;;10.93;;
18251;SDS011;26917;52.328;20.878;2023-04-08T06:22:53;16.25;;;10.05;;
18251;SDS011;26917;52.328;20.878;2023-04-08T06:25:21;16.33;;;10.63;;
18251;SDS011;26917;52.328;20.878;2023-04-08T06:27:50;15.70;;;10.38;;
18251;SDS011;26917;52.328;20.878;2023-04-08T06:30:18;16.33;;;10.10;;
18251;SDS011;26917;52.328;20.878;2023-04-08T06:32:47;17.38;;;10.20;;
18251;SDS011;26917;52.328;20.878;2023-04-08T06:35:16;17.85;;;11.52;;
18251;SDS011;26917;52.328;20.878;2023-04-08T06:37:44;16.10;;;11.40;;
18251;SDS011;26917;52.328;20.878;2023-04-08T06:40:14;17.65;;;11.23;;
18251;SDS011;26917;52.328;20.878;2023-04-08T06:42:43;17.23;;;10.55;;
18251;SDS011;26917;52.328;20.878;2023-04-08T06:45:21;15.38;;;11.00;;
18251;SDS011;26917;52.328;20.878;2023-04-08T06:47:50;17.73;;;11.48;;
18251;SDS011;26917;52.328;20.878;2023-04-08T06:50:18;15.55;;;10.95;;
18251;SDS011;26917;52.328;20.878;2023-04-08T06:52:47;15.38;;;10.73;;
18251;SDS011;26917;52.328;20.878;2023-04-08T06:55:17;17.08;;;10.25;;
18251;SDS011;26917;52.328;20.878;2023-04-08T06:57:46;14.65;;;10.25;;
18251;SDS011;26917;52.328;20.878;2023-04-08T07:00:14;17.15;;;9.68;;
18251;SDS011;26917;52.328;20.878;2023-04-08T07:02:43;14.45;;;9.93;;
18251;SDS011;26917;52.328;20.878;2023-04-08T07:05:11;18.25;;;10.68;;
18251;SDS011;26917;52.328;20.878;2023-04-08T07:07:40;14.45;;;8.70;;
18251;SDS011;26917;52.328;20.878;2023-04-08T07:10:08;14.10;;;9.73;;
18251;SDS011;26917;52.328;20.878;2023-04-08T07:12:38;14.23;;;9.38;;
18251;SDS011;26917;52.328;20.878;2023-04-08T07:15:07;11.55;;;8.23;;
18251;SDS011;26917;52.328;20.878;2023-04-08T07:17:36;12.27;;;8.40;;
18251;SDS011;26917;52.328;20.878;2023-04-08T07:20:05;13.93;;;9.45;;
18251;SDS011;26917;52.328;20.878;2023-04-08T07:22:34;13.80;;;9.80;;
18251;SDS011;26917;52.328;20.878;2023-04-08T07:25:03;13.65;;;9.02;;
18251;SDS011;26917;52.328;20.878;2023-04-08T07:27:35;12.20;;;9.18;;
18251;SDS011;26917;52.328;20.878;2023-04-08T07:30:07;12.55;;;9.18;;
18251;SDS011;26917;52.328;20.878;2023-04-08T07:32:36;16.13;;;10.18;;
18251;SDS011;26917;52.328;20.878;2023-04-08T07:35:05;15.65;;;9.95;;
18251;SDS011;26917;52.328;20.878;2023-04-08T07:37:34;12.68;;;8.75;;
18251;SDS011;26917;52.328;20.878;2023-04-08T07:40:02;15.38;;;9.65;;
18251;SDS011;26917;52.328;20.878;2023-04-08T07:42:31;13.55;;;9.60;;
18251;SDS011;26917;52.328;20.878;2023-04-08T07:45:00;16.05;;;10.35;;
18251;SDS011;26917;52.328;20.878;2023-04-08T07:47:30;13.82;;;9.43;;
18251;SDS011;26917;52.328;20.878;2023-04-08T07:49:59;14.32;;;9.88;;
18251;SDS011;26917;52.328;20.878;2023-04-08T07:52:28;17.13;;;9.90;;
18251;SDS011;26917;52.328;20.878;2023-04-08T07:54:57;16.77;;;10.43;;
18251;SDS011;26917;52.328;20.878;2023-04-08T07:57:27;15.35;;;10.93;;
18251;SDS011;26917;52.328;20.878;2023-04-08T07:59:55;17.02;;;10.48;;
18251;SDS011;26917;52.328;20.878;2023-04-08T08:02:24;17.15;;;11.35;;
18251;SDS011;26917;52.328;20.878;2023-04-08T08:04:54;13.70;;;10.32;;
18251;SDS011;26917;52.328;20.878;2023-04-08T08:07:22;16.58;;;11.23;;
18251;SDS011;26917;52.328;20.878;2023-04-08T08:09:50;15.27;;;10.68;;
18251;SDS011;26917;52.328;20.878;2023-04-08T08:12:19;16.30;;;10.45;;
18251;SDS011;26917;52.328;20.878;2023-04-08T08:14:47;15.45;;;11.18;;
18251;SDS011;26917;52.328;20.878;2023-04-08T08:17:16;14.88;;;10.20;;
18251;SDS011;26917;52.328;20.878;2023-04-08T08:19:45;16.88;;;9.95;;
18251;SDS011;26917;52.328;20.878;2023-04-08T08:22:14;14.95;;;10.38;;
18251;SDS011;26917;52.328;20.878;2023-04-08T08:24:43;16.35;;;10.43;;
18251;SDS011;26917;52.328;20.878;2023-04-08T08:27:12;13.60;;;9.60;;
18251;SDS011;26917;52.328;20.878;2023-04-08T08:29:41;13.35;;;8.48;;
18251;SDS011;26917;52.328;20.878;2023-04-08T08:32:09;15.02;;;9.50;;
18251;SDS011;26917;52.328;20.878;2023-04-08T08:34:38;13.32;;;9.30;;
18251;SDS011;26917;52.328;20.878;2023-04-08T08:37:06;14.10;;;9.38;;
18251;SDS011;26917;52.328;20.878;2023-04-08T08:39:36;13.10;;;9.75;;
18251;SDS011;26917;52.328;20.878;2023-04-08T08:42:05;12.43;;;8.77;;
18251;SDS011;26917;52.328;20.878;2023-04-08T08:44:33;12.55;;;8.80;;
18251;SDS011;26917;52.328;20.878;2023-04-08T08:47:02;13.40;;;8.88;;
18251;SDS011;26917;52.328;20.878;2023-04-08T08:49:31;16.15;;;9.05;;
18251;SDS011;26917;52.328;20.878;2023-04-08T08:52:00;15.48;;;8.40;;
18251;SDS011;26917;52.328;20.878;2023-04-08T08:54:29;13.35;;;9.52;;
18251;SDS011;26917;52.328;20.878;2023-04-08T08:56:59;13.95;;;8.90;;
18251;SDS011;26917;52.328;20.878;2023-04-08T08:59:27;11.38;;;8.52;;
18251;SDS011;26917;52.328;20.878;2023-04-08T09:01:56;12.73;;;8.23;;
18251;SDS011;26917;52.328;20.878;2023-04-08T09:04:24;12.05;;;8.10;;
18251;SDS011;26917;52.328;20.878;2023-04-08T09:07:05;11.68;;;8.23;;
18251;SDS011;26917;52.328;20.878;2023-04-08T09:09:46;9.63;;;7.65;;
18251;SDS011;26917;52.328;20.878;2023-04-08T09:12:16;11.55;;;8.60;;
18251;SDS011;26917;52.328;20.878;2023-04-08T09:14:45;13.45;;;9.10;;
18251;SDS011;26917;52.328;20.878;2023-04-08T09:17:14;13.77;;;8.43;;
18251;SDS011;26917;52.328;20.878;2023-04-08T09:22:32;10.07;;;7.03;;
18251;SDS011;26917;52.328;20.878;2023-04-08T09:25:00;10.45;;;6.65;;
18251;SDS011;26917;52.328;20.878;2023-04-08T09:27:50;9.82;;;6.15;;
18251;SDS011;26917;52.328;20.878;2023-04-08T09:30:20;9.98;;;6.18;;
18251;SDS011;26917;52.328;20.878;2023-04-08T09:32:50;8.80;;;5.80;;
18251;SDS011;26917;52.328;20.878;2023-04-08T09:35:19;14.70;;;7.00;;
18251;SDS011;26917;52.328;20.878;2023-04-08T09:37:49;7.95;;;6.30;;
18251;SDS011;26917;52.328;20.878;2023-04-08T09:40:17;9.38;;;6.90;;
18251;SDS011;26917;52.328;20.878;2023-04-08T09:42:47;10.02;;;6.93;;
18251;SDS011;26917;52.328;20.878;2023-04-08T09:45:19;10.05;;;6.97;;
18251;SDS011;26917;52.328;20.878;2023-04-08T09:47:51;9.95;;;7.15;;
18251;SDS011;26917;52.328;20.878;2023-04-08T09:50:26;9.10;;;6.30;;
18251;SDS011;26917;52.328;20.878;2023-04-08T09:52:59;9.95;;;7.35;;
18251;SDS011;26917;52.328;20.878;2023-04-08T09:55:35;14.48;;;8.20;;
18251;SDS011;26917;52.328;20.878;2023-04-08T09:58:07;8.63;;;6.63;;
18251;SDS011;26917;52.328;20.878;2023-04-08T10:00:45;10.95;;;7.38;;
18251;SDS011;26917;52.328;20.878;2023-04-08T10:03:19;11.82;;;7.60;;
18251;SDS011;26917;52.328;20.878;2023-04-08T10:05:54;10.38;;;7.70;;
18251;SDS011;26917;52.328;20.878;2023-04-08T10:08:25;14.48;;;7.70;;
18251;SDS011;26917;52.328;20.878;2023-04-08T10:10:54;10.00;;;7.43;;
18251;SDS011;26917;52.328;20.878;2023-04-08T10:13:22;11.55;;;7.70;;
18251;SDS011;26917;52.328;20.878;2023-04-08T10:18:50;12.02;;;8.27;;
18251;SDS011;26917;52.328;20.878;2023-04-08T10:21:37;11.60;;;8.63;;
18251;SDS011;26917;52.328;20.878;2023-04-08T10:24:08;10.90;;;7.78;;
18251;SDS011;26917;52.328;20.878;2023-04-08T10:26:38;10.85;;;8.00;;
18251;SDS011;26917;52.328;20.878;2023-04-08T10:29:29;11.00;;;8.13;;
18251;SDS011;26917;52.328;20.878;2023-04-08T10:31:59;12.15;;;8.20;;
18251;SDS011;26917;52.328;20.878;2023-04-08T10:34:28;13.10;;;7.20;;
18251;SDS011;26917;52.328;20.878;2023-04-08T10:36:56;9.77;;;8.20;;
18251;SDS011;26917;52.328;20.878;2023-04-08T10:39:29;14.65;;;8.60;;
18251;SDS011;26917;52.328;20.878;2023-04-08T10:41:58;9.40;;;7.88;;
18251;SDS011;26917;52.328;20.878;2023-04-08T10:44:29;8.93;;;7.40;;
18251;SDS011;26917;52.328;20.878;2023-04-08T10:46:59;10.32;;;7.97;;
18251;SDS011;26917;52.328;20.878;2023-04-08T10:49:31;11.02;;;8.27;;
18251;SDS011;26917;52.328;20.878;2023-04-08T10:52:05;14.23;;;7.93;;
18251;SDS011;26917;52.328;20.878;2023-04-08T10:54:34;10.40;;;7.68;;
18251;SDS011;26917;52.328;20.878;2023-04-08T10:57:04;14.40;;;8.45;;
18251;SDS011;26917;52.328;20.878;2023-04-08T10:59:32;11.57;;;7.93;;
18251;SDS011;26917;52.328;20.878;2023-04-08T11:02:03;12.48;;;8.23;;
18251;SDS011;26917;52.328;20.878;2023-04-08T11:04:32;9.52;;;7.25;;
18251;SDS011;26917;52.328;20.878;2023-04-08T11:07:04;9.60;;;7.32;;
18251;SDS011;26917;52.328;20.878;2023-04-08T11:09:33;9.98;;;7.93;;
18251;SDS011;26917;52.328;20.878;2023-04-08T11:12:01;14.13;;;8.13;;
18251;SDS011;26917;52.328;20.878;2023-04-08T11:14:29;9.30;;;6.60;;
18251;SDS011;26917;52.328;20.878;2023-04-08T11:16:58;10.60;;;7.63;;
18251;SDS011;26917;52.328;20.878;2023-04-08T11:19:28;9.23;;;6.78;;
18251;SDS011;26917;52.328;20.878;2023-04-08T11:21:57;12.15;;;8.07;;
18251;SDS011;26917;52.328;20.878;2023-04-08T11:24:25;10.85;;;7.05;;
18251;SDS011;26917;52.328;20.878;2023-04-08T11:26:54;11.75;;;7.50;;
18251;SDS011;26917;52.328;20.878;2023-04-08T11:29:22;10.02;;;7.45;;
18251;SDS011;26917;52.328;20.878;2023-04-08T11:31:53;8.43;;;7.03;;
18251;SDS011;26917;52.328;20.878;2023-04-08T11:34:22;9.98;;;7.47;;
18251;SDS011;26917;52.328;20.878;2023-04-08T11:36:55;11.13;;;7.13;;
18251;SDS011;26917;52.328;20.878;2023-04-08T11:39:27;10.85;;;7.20;;
18251;SDS011;26917;52.328;20.878;2023-04-08T11:41:55;8.93;;;6.85;;
18251;SDS011;26917;52.328;20.878;2023-04-08T11:44:28;10.45;;;6.65;;
18251;SDS011;26917;52.328;20.878;2023-04-08T11:46:58;9.90;;;6.93;;
18251;SDS011;26917;52.328;20.878;2023-04-08T11:49:28;8.68;;;6.68;;
18251;SDS011;26917;52.328;20.878;2023-04-08T11:52:12;8.57;;;6.43;;
18251;SDS011;26917;52.328;20.878;2023-04-08T11:54:41;8.07;;;6.28;;
18251;SDS011;26917;52.328;20.878;2023-04-08T11:57:10;8.65;;;6.47;;
18251;SDS011;26917;52.328;20.878;2023-04-08T11:59:38;11.55;;;7.65;;
18251;SDS011;26917;52.328;20.878;2023-04-08T12:02:07;9.98;;;6.43;;
18251;SDS011;26917;52.328;20.878;2023-04-08T12:04:35;8.50;;;6.40;;
18251;SDS011;26917;52.328;20.878;2023-04-08T12:07:04;7.05;;;5.95;;
18251;SDS011;26917;52.328;20.878;2023-04-08T12:09:34;7.00;;;6.07;;
18251;SDS011;26917;52.328;20.878;2023-04-08T12:12:02;7.72;;;6.57;;
18251;SDS011;26917;52.328;20.878;2023-04-08T12:14:31;9.70;;;5.97;;
18251;SDS011;26917;52.328;20.878;2023-04-08T12:17:01;10.15;;;6.15;;
18251;SDS011;26917;52.328;20.878;2023-04-08T12:19:29;8.30;;;6.05;;
18251;SDS011;26917;52.328;20.878;2023-04-08T12:22:00;10.55;;;6.15;;
18251;SDS011;26917;52.328;20.878;2023-04-08T12:24:29;7.47;;;5.80;;
18251;SDS011;26917;52.328;20.878;2023-04-08T12:26:58;9.23;;;6.25;;
18251;SDS011;26917;52.328;20.878;2023-04-08T12:29:27;7.10;;;5.95;;
18251;SDS011;26917;52.328;20.878;2023-04-08T12:31:56;7.95;;;6.10;;
18251;SDS011;26917;52.328;20.878;2023-04-08T12:34:24;8.20;;;5.30;;
18251;SDS011;26917;52.328;20.878;2023-04-08T12:36:53;7.10;;;5.38;;
18251;SDS011;26917;52.328;20.878;2023-04-08T12:39:22;6.70;;;5.57;;
18251;SDS011;26917;52.328;20.878;2023-04-08T12:41:50;6.85;;;5.47;;
18251;SDS011;26917;52.328;20.878;2023-04-08T12:44:20;5.47;;;4.85;;
18251;SDS011;26917;52.328;20.878;2023-04-08T12:46:48;7.72;;;5.28;;
18251;SDS011;26917;52.328;20.878;2023-04-08T12:49:17;5.90;;;5.13;;
18251;SDS011;26917;52.328;20.878;2023-04-08T12:51:45;7.38;;;5.55;;
18251;SDS011;26917;52.328;20.878;2023-04-08T12:54:14;7.82;;;5.82;;
18251;SDS011;26917;52.328;20.878;2023-04-08T12:56:42;8.57;;;5.72;;
18251;SDS011;26917;52.328;20.878;2023-04-08T12:59:11;6.57;;;5.55;;
18251;SDS011;26917;52.328;20.878;2023-04-08T13:01:41;7.75;;;5.88;;
18251;SDS011;26917;52.328;20.878;2023-04-08T13:04:09;8.05;;;5.93;;
18251;SDS011;26917;52.328;20.878;2023-04-08T13:06:38;6.85;;;5.35;;
18251;SDS011;26917;52.328;20.878;2023-04-08T13:09:06;7.68;;;5.78;;
18251;SDS011;26917;52.328;20.878;2023-04-08T13:11:35;7.70;;;5.63;;
18251;SDS011;26917;52.328;20.878;2023-04-08T13:14:03;7.13;;;6.40;;
18251;SDS011;26917;52.328;20.878;2023-04-08T13:16:31;9.43;;;6.85;;
18251;SDS011;26917;52.328;20.878;2023-04-08T13:19:02;7.95;;;6.30;;
18251;SDS011;26917;52.328;20.878;2023-04-08T13:21:30;7.35;;;6.13;;
18251;SDS011;26917;52.328;20.878;2023-04-08T13:23:58;9.05;;;5.72;;
18251;SDS011;26917;52.328;20.878;2023-04-08T13:26:27;8.77;;;6.15;;
18251;SDS011;26917;52.328;20.878;2023-04-08T13:28:55;8.70;;;6.80;;
18251;SDS011;26917;52.328;20.878;2023-04-08T13:31:26;6.72;;;5.53;;
18251;SDS011;26917;52.328;20.878;2023-04-08T13:33:56;8.27;;;6.25;;
18251;SDS011;26917;52.328;20.878;2023-04-08T13:36:26;8.40;;;6.00;;
18251;SDS011;26917;52.328;20.878;2023-04-08T13:38:55;6.82;;;5.32;;
18251;SDS011;26917;52.328;20.878;2023-04-08T13:41:24;7.97;;;5.50;;
18251;SDS011;26917;52.328;20.878;2023-04-08T13:43:53;7.13;;;5.72;;
18251;SDS011;26917;52.328;20.878;2023-04-08T13:46:22;9.15;;;5.60;;
18251;SDS011;26917;52.328;20.878;2023-04-08T13:48:51;7.40;;;5.10;;
18251;SDS011;26917;52.328;20.878;2023-04-08T13:51:20;5.30;;;4.38;;
18251;SDS011;26917;52.328;20.878;2023-04-08T13:53:50;6.82;;;4.72;;
18251;SDS011;26917;52.328;20.878;2023-04-08T13:56:18;6.88;;;4.60;;
18251;SDS011;26917;52.328;20.878;2023-04-08T13:58:47;5.78;;;5.03;;
18251;SDS011;26917;52.328;20.878;2023-04-08T14:01:23;6.32;;;5.03;;
18251;SDS011;26917;52.328;20.878;2023-04-08T14:03:51;5.40;;;4.45;;
18251;SDS011;26917;52.328;20.878;2023-04-08T14:06:19;6.32;;;5.20;;
18251;SDS011;26917;52.328;20.878;2023-04-08T14:08:49;6.20;;;5.53;;
18251;SDS011;26917;52.328;20.878;2023-04-08T14:11:18;9.48;;;4.88;;
18251;SDS011;26917;52.328;20.878;2023-04-08T14:13:48;6.82;;;5.25;;
18251;SDS011;26917;52.328;20.878;2023-04-08T14:16:16;7.38;;;5.72;;
18251;SDS011;26917;52.328;20.878;2023-04-08T14:18:45;7.30;;;5.18;;
18251;SDS011;26917;52.328;20.878;2023-04-08T14:21:14;6.50;;;5.07;;
18251;SDS011;26917;52.328;20.878;2023-04-08T14:23:43;6.97;;;5.32;;
18251;SDS011;26917;52.328;20.878;2023-04-08T14:26:13;12.32;;;5.70;;
18251;SDS011;26917;52.328;20.878;2023-04-08T14:28:42;7.28;;;5.95;;
18251;SDS011;26917;52.328;20.878;2023-04-08T14:31:10;6.82;;;5.05;;
18251;SDS011;26917;52.328;20.878;2023-04-08T14:33:39;8.02;;;6.18;;
18251;SDS011;26917;52.328;20.878;2023-04-08T14:36:08;9.20;;;6.75;;
18251;SDS011;26917;52.328;20.878;2023-04-08T14:38:36;8.15;;;6.28;;
18251;SDS011;26917;52.328;20.878;2023-04-08T14:41:05;8.63;;;5.88;;
18251;SDS011;26917;52.328;20.878;2023-04-08T14:43:35;6.82;;;5.15;;